sensor_id;sensor_type;location;lat;lon;timestamp;P1;durP1;ratioP1;P2;durP2;ratioP2
76204;SDS011;64986;55.672;37.628;2024-02-26T00:01:24;8.50;;;2.95;;
76204;SDS011;64986;55.672;37.628;2024-02-26T00:03:50;8.32;;;3.00;;
76204;SDS011;64986;55.672;37.628;2024-02-26T00:06:15;5.88;;;2.80;;
76204;SDS011;64986;55.672;37.628;2024-02-26T00:08:40;8.77;;;3.25;;
76204;SDS011;64986;55.672;37.628;2024-02-26T00:11:06;5.28;;;2.78;;
76204;SDS011;64986;55.672;37.628;2024-02-26T00:13:31;5.43;;;2.65;;
76204;SDS011;64986;55.672;37.628;2024-02-26T00:15:56;7.85;;;2.78;;
76204;SDS011;64986;55.672;37.628;2024-02-26T00:18:22;3.95;;;2.33;;
76204;SDS011;64986;55.672;37.628;2024-02-26T00:20:47;10.00;;;3.35;;
76204;SDS011;64986;55.672;37.628;2024-02-26T00:23:14;6.18;;;2.70;;
76204;SDS011;64986;55.672;37.628;2024-02-26T00:25:40;6.15;;;2.80;;
76204;SDS011;64986;55.672;37.628;2024-02-26T00:28:07;5.53;;;2.35;;
76204;SDS011;64986;55.672;37.628;2024-02-26T00:30:32;5.82;;;2.90;;
76204;SDS011;64986;55.672;37.628;2024-02-26T00:32:58;5.50;;;2.58;;
76204;SDS011;64986;55.672;37.628;2024-02-26T00:35:23;5.93;;;2.75;;
76204;SDS011;64986;55.672;37.628;2024-02-26T00:37:48;9.55;;;2.80;;
76204;SDS011;64986;55.672;37.628;2024-02-26T00:40:14;6.47;;;2.50;;
76204;SDS011;64986;55.672;37.628;2024-02-26T00:42:39;5.22;;;2.30;;
76204;SDS011;64986;55.672;37.628;2024-02-26T00:45:10;5.15;;;2.60;;
76204;SDS011;64986;55.672;37.628;2024-02-26T00:47:35;4.13;;;2.10;;
76204;SDS011;64986;55.672;37.628;2024-02-26T00:50:01;7.93;;;2.97;;
76204;SDS011;64986;55.672;37.628;2024-02-26T00:52:27;5.22;;;2.50;;
76204;SDS011;64986;55.672;37.628;2024-02-26T00:54:52;6.90;;;2.92;;
76204;SDS011;64986;55.672;37.628;2024-02-26T00:57:18;4.85;;;2.20;;
76204;SDS011;64986;55.672;37.628;2024-02-26T00:59:43;4.22;;;2.20;;
76204;SDS011;64986;55.672;37.628;2024-02-26T01:02:08;7.45;;;2.55;;
76204;SDS011;64986;55.672;37.628;2024-02-26T01:04:34;5.60;;;2.05;;
76204;SDS011;64986;55.672;37.628;2024-02-26T01:06:59;4.28;;;2.03;;
76204;SDS011;64986;55.672;37.628;2024-02-26T01:09:24;4.07;;;2.20;;
76204;SDS011;64986;55.672;37.628;2024-02-26T01:11:50;5.70;;;2.40;;
76204;SDS011;64986;55.672;37.628;2024-02-26T01:14:15;5.88;;;2.38;;
76204;SDS011;64986;55.672;37.628;2024-02-26T01:16:41;7.10;;;2.40;;
76204;SDS011;64986;55.672;37.628;2024-02-26T01:19:06;7.40;;;3.05;;
76204;SDS011;64986;55.672;37.628;2024-02-26T01:21:31;3.42;;;1.92;;
76204;SDS011;64986;55.672;37.628;2024-02-26T01:23:57;6.53;;;2.22;;
76204;SDS011;64986;55.672;37.628;2024-02-26T01:26:22;5.65;;;2.20;;
76204;SDS011;64986;55.672;37.628;2024-02-26T01:28:48;3.33;;;2.00;;
76204;SDS011;64986;55.672;37.628;2024-02-26T01:31:13;4.15;;;2.45;;
76204;SDS011;64986;55.672;37.628;2024-02-26T01:33:39;4.80;;;2.67;;
76204;SDS011;64986;55.672;37.628;2024-02-26T01:36:04;6.80;;;1.88;;
76204;SDS011;64986;55.672;37.628;2024-02-26T01:38:29;5.13;;;2.13;;
76204;SDS011;64986;55.672;37.628;2024-02-26T01:40:55;4.57;;;2.17;;
76204;SDS011;64986;55.672;37.628;2024-02-26T01:43:20;3.50;;;1.85;;
76204;SDS011;64986;55.672;37.628;2024-02-26T01:45:46;5.38;;;2.47;;
76204;SDS011;64986;55.672;37.628;2024-02-26T01:48:11;6.35;;;2.10;;
76204;SDS011;64986;55.672;37.628;2024-02-26T01:50:37;5.25;;;2.40;;
76204;SDS011;64986;55.672;37.628;2024-02-26T01:53:03;6.18;;;2.05;;
76204;SDS011;64986;55.672;37.628;2024-02-26T01:55:28;6.65;;;2.30;;
76204;SDS011;64986;55.672;37.628;2024-02-26T01:57:54;5.38;;;1.83;;
76204;SDS011;64986;55.672;37.628;2024-02-26T02:00:20;2.88;;;1.58;;
76204;SDS011;64986;55.672;37.628;2024-02-26T02:02:46;4.32;;;1.98;;
76204;SDS011;64986;55.672;37.628;2024-02-26T02:05:14;4.38;;;1.98;;
76204;SDS011;64986;55.672;37.628;2024-02-26T02:07:40;3.85;;;1.90;;
76204;SDS011;64986;55.672;37.628;2024-02-26T02:10:06;4.47;;;2.00;;
76204;SDS011;64986;55.672;37.628;2024-02-26T02:12:32;3.25;;;1.65;;
76204;SDS011;64986;55.672;37.628;2024-02-26T02:14:59;4.10;;;2.00;;
76204;SDS011;64986;55.672;37.628;2024-02-26T02:17:24;6.28;;;2.50;;
76204;SDS011;64986;55.672;37.628;2024-02-26T02:19:50;2.42;;;1.55;;
76204;SDS011;64986;55.672;37.628;2024-02-26T02:22:15;6.03;;;2.03;;
76204;SDS011;64986;55.672;37.628;2024-02-26T02:24:41;5.75;;;1.90;;
76204;SDS011;64986;55.672;37.628;2024-02-26T02:27:06;5.45;;;2.15;;
76204;SDS011;64986;55.672;37.628;2024-02-26T02:29:31;3.05;;;1.40;;
76204;SDS011;64986;55.672;37.628;2024-02-26T02:31:57;4.60;;;1.33;;
76204;SDS011;64986;55.672;37.628;2024-02-26T02:34:22;3.30;;;1.42;;
76204;SDS011;64986;55.672;37.628;2024-02-26T02:36:51;3.30;;;1.55;;
76204;SDS011;64986;55.672;37.628;2024-02-26T02:39:17;3.80;;;1.83;;
76204;SDS011;64986;55.672;37.628;2024-02-26T02:41:42;3.17;;;1.73;;
76204;SDS011;64986;55.672;37.628;2024-02-26T02:44:08;6.00;;;2.42;;
76204;SDS011;64986;55.672;37.628;2024-02-26T02:46:33;5.72;;;2.10;;
76204;SDS011;64986;55.672;37.628;2024-02-26T02:49:00;3.97;;;2.13;;
76204;SDS011;64986;55.672;37.628;2024-02-26T02:51:25;2.53;;;1.38;;
76204;SDS011;64986;55.672;37.628;2024-02-26T02:53:51;4.22;;;1.60;;
76204;SDS011;64986;55.672;37.628;2024-02-26T02:56:16;5.35;;;1.92;;
76204;SDS011;64986;55.672;37.628;2024-02-26T02:58:41;3.42;;;1.80;;
76204;SDS011;64986;55.672;37.628;2024-02-26T03:01:07;3.90;;;1.83;;
76204;SDS011;64986;55.672;37.628;2024-02-26T03:03:32;4.75;;;2.20;;
76204;SDS011;64986;55.672;37.628;2024-02-26T03:05:58;3.17;;;1.92;;
76204;SDS011;64986;55.672;37.628;2024-02-26T03:08:23;4.75;;;1.90;;
76204;SDS011;64986;55.672;37.628;2024-02-26T03:10:50;5.00;;;2.22;;
76204;SDS011;64986;55.672;37.628;2024-02-26T03:13:16;4.20;;;1.90;;
76204;SDS011;64986;55.672;37.628;2024-02-26T03:15:41;3.90;;;1.95;;
76204;SDS011;64986;55.672;37.628;2024-02-26T03:18:07;5.40;;;1.98;;
76204;SDS011;64986;55.672;37.628;2024-02-26T03:20:32;4.05;;;2.30;;
76204;SDS011;64986;55.672;37.628;2024-02-26T03:22:58;3.15;;;1.50;;
76204;SDS011;64986;55.672;37.628;2024-02-26T03:25:23;3.35;;;1.65;;
76204;SDS011;64986;55.672;37.628;2024-02-26T03:27:48;2.67;;;1.63;;
76204;SDS011;64986;55.672;37.628;2024-02-26T03:30:14;4.55;;;1.50;;
76204;SDS011;64986;55.672;37.628;2024-02-26T03:32:40;2.55;;;1.50;;
76204;SDS011;64986;55.672;37.628;2024-02-26T03:35:05;5.70;;;1.95;;
76204;SDS011;64986;55.672;37.628;2024-02-26T03:37:32;4.05;;;2.00;;
76204;SDS011;64986;55.672;37.628;2024-02-26T03:39:58;3.35;;;1.58;;
76204;SDS011;64986;55.672;37.628;2024-02-26T03:42:23;4.10;;;1.67;;
76204;SDS011;64986;55.672;37.628;2024-02-26T03:44:48;4.78;;;2.08;;
76204;SDS011;64986;55.672;37.628;2024-02-26T03:47:14;3.22;;;2.05;;
76204;SDS011;64986;55.672;37.628;2024-02-26T03:49:39;5.10;;;2.30;;
76204;SDS011;64986;55.672;37.628;2024-02-26T03:52:05;4.03;;;2.08;;
76204;SDS011;64986;55.672;37.628;2024-02-26T03:54:30;3.22;;;1.73;;
76204;SDS011;64986;55.672;37.628;2024-02-26T03:56:56;4.38;;;1.75;;
76204;SDS011;64986;55.672;37.628;2024-02-26T03:59:21;4.70;;;1.88;;
76204;SDS011;64986;55.672;37.628;2024-02-26T04:01:49;3.75;;;2.08;;
76204;SDS011;64986;55.672;37.628;2024-02-26T04:04:14;3.70;;;1.83;;
76204;SDS011;64986;55.672;37.628;2024-02-26T04:06:43;3.47;;;1.60;;
76204;SDS011;64986;55.672;37.628;2024-02-26T04:09:09;4.97;;;2.30;;
76204;SDS011;64986;55.672;37.628;2024-02-26T04:11:35;3.42;;;2.13;;
76204;SDS011;64986;55.672;37.628;2024-02-26T04:14:00;3.88;;;1.90;;
76204;SDS011;64986;55.672;37.628;2024-02-26T04:16:26;6.03;;;2.08;;
76204;SDS011;64986;55.672;37.628;2024-02-26T04:18:51;4.75;;;2.03;;
76204;SDS011;64986;55.672;37.628;2024-02-26T04:21:18;3.35;;;1.75;;
76204;SDS011;64986;55.672;37.628;2024-02-26T04:23:43;6.03;;;2.30;;
76204;SDS011;64986;55.672;37.628;2024-02-26T04:26:09;7.82;;;2.22;;
76204;SDS011;64986;55.672;37.628;2024-02-26T04:28:34;4.35;;;1.65;;
76204;SDS011;64986;55.672;37.628;2024-02-26T04:31:01;4.40;;;2.08;;
76204;SDS011;64986;55.672;37.628;2024-02-26T04:33:26;4.07;;;1.98;;
76204;SDS011;64986;55.672;37.628;2024-02-26T04:35:52;3.90;;;2.40;;
76204;SDS011;64986;55.672;37.628;2024-02-26T04:38:17;5.55;;;2.90;;
76204;SDS011;64986;55.672;37.628;2024-02-26T04:40:43;5.25;;;2.20;;
76204;SDS011;64986;55.672;37.628;2024-02-26T04:43:08;4.13;;;2.17;;
76204;SDS011;64986;55.672;37.628;2024-02-26T04:45:33;4.63;;;2.65;;
76204;SDS011;64986;55.672;37.628;2024-02-26T04:47:59;4.10;;;2.13;;
76204;SDS011;64986;55.672;37.628;2024-02-26T04:50:24;3.50;;;2.00;;
76204;SDS011;64986;55.672;37.628;2024-02-26T04:52:50;5.60;;;2.65;;
76204;SDS011;64986;55.672;37.628;2024-02-26T04:55:15;4.55;;;2.40;;
76204;SDS011;64986;55.672;37.628;2024-02-26T04:57:40;10.02;;;3.15;;
76204;SDS011;64986;55.672;37.628;2024-02-26T05:00:06;5.30;;;2.38;;
76204;SDS011;64986;55.672;37.628;2024-02-26T05:02:31;5.00;;;2.35;;
76204;SDS011;64986;55.672;37.628;2024-02-26T05:04:58;4.93;;;2.65;;
76204;SDS011;64986;55.672;37.628;2024-02-26T05:07:24;7.28;;;2.70;;
76204;SDS011;64986;55.672;37.628;2024-02-26T05:09:49;6.72;;;3.03;;
76204;SDS011;64986;55.672;37.628;2024-02-26T05:12:15;5.50;;;2.83;;
76204;SDS011;64986;55.672;37.628;2024-02-26T05:14:40;6.70;;;2.85;;
76204;SDS011;64986;55.672;37.628;2024-02-26T05:17:06;6.18;;;3.08;;
76204;SDS011;64986;55.672;37.628;2024-02-26T05:19:31;10.57;;;2.95;;
76204;SDS011;64986;55.672;37.628;2024-02-26T05:21:57;8.48;;;3.38;;
76204;SDS011;64986;55.672;37.628;2024-02-26T05:24:22;4.63;;;2.38;;
76204;SDS011;64986;55.672;37.628;2024-02-26T05:26:48;7.63;;;3.65;;
76204;SDS011;64986;55.672;37.628;2024-02-26T05:29:13;5.72;;;3.25;;
76204;SDS011;64986;55.672;37.628;2024-02-26T05:31:38;8.98;;;3.40;;
76204;SDS011;64986;55.672;37.628;2024-02-26T05:34:04;9.82;;;3.00;;
76204;SDS011;64986;55.672;37.628;2024-02-26T05:36:29;6.07;;;3.15;;
76204;SDS011;64986;55.672;37.628;2024-02-26T05:38:58;6.25;;;2.90;;
76204;SDS011;64986;55.672;37.628;2024-02-26T05:41:24;11.70;;;4.95;;
76204;SDS011;64986;55.672;37.628;2024-02-26T05:43:51;7.18;;;2.83;;
76204;SDS011;64986;55.672;37.628;2024-02-26T05:46:17;4.97;;;2.53;;
76204;SDS011;64986;55.672;37.628;2024-02-26T05:48:43;6.05;;;2.60;;
76204;SDS011;64986;55.672;37.628;2024-02-26T05:51:09;6.78;;;3.60;;
76204;SDS011;64986;55.672;37.628;2024-02-26T05:53:34;6.68;;;3.00;;
76204;SDS011;64986;55.672;37.628;2024-02-26T05:55:59;9.73;;;2.90;;
76204;SDS011;64986;55.672;37.628;2024-02-26T05:58:25;7.97;;;3.88;;
76204;SDS011;64986;55.672;37.628;2024-02-26T06:00:50;5.68;;;2.67;;
76204;SDS011;64986;55.672;37.628;2024-02-26T06:03:15;7.93;;;3.05;;
76204;SDS011;64986;55.672;37.628;2024-02-26T06:05:41;8.75;;;3.20;;
76204;SDS011;64986;55.672;37.628;2024-02-26T06:08:07;8.23;;;3.20;;
76204;SDS011;64986;55.672;37.628;2024-02-26T06:10:32;6.82;;;3.10;;
76204;SDS011;64986;55.672;37.628;2024-02-26T06:12:58;8.15;;;3.42;;
76204;SDS011;64986;55.672;37.628;2024-02-26T06:15:23;8.02;;;2.70;;
76204;SDS011;64986;55.672;37.628;2024-02-26T06:17:48;7.88;;;3.13;;
76204;SDS011;64986;55.672;37.628;2024-02-26T06:20:14;12.73;;;4.85;;
76204;SDS011;64986;55.672;37.628;2024-02-26T06:22:40;6.15;;;2.80;;
76204;SDS011;64986;55.672;37.628;2024-02-26T06:25:05;4.68;;;2.40;;
76204;SDS011;64986;55.672;37.628;2024-02-26T06:27:31;7.35;;;3.72;;
76204;SDS011;64986;55.672;37.628;2024-02-26T06:29:56;6.25;;;3.10;;
76204;SDS011;64986;55.672;37.628;2024-02-26T06:32:22;8.40;;;3.40;;
76204;SDS011;64986;55.672;37.628;2024-02-26T06:34:48;6.53;;;3.47;;
76204;SDS011;64986;55.672;37.628;2024-02-26T06:37:13;5.80;;;2.92;;
76204;SDS011;64986;55.672;37.628;2024-02-26T06:39:39;11.95;;;3.17;;
76204;SDS011;64986;55.672;37.628;2024-02-26T06:42:04;8.73;;;3.25;;
76204;SDS011;64986;55.672;37.628;2024-02-26T06:44:30;6.30;;;3.22;;
76204;SDS011;64986;55.672;37.628;2024-02-26T06:47:00;8.73;;;3.20;;
76204;SDS011;64986;55.672;37.628;2024-02-26T06:49:25;7.05;;;3.22;;
76204;SDS011;64986;55.672;37.628;2024-02-26T06:51:51;7.97;;;3.03;;
76204;SDS011;64986;55.672;37.628;2024-02-26T06:54:16;6.75;;;3.63;;
76204;SDS011;64986;55.672;37.628;2024-02-26T06:56:42;7.10;;;2.95;;
76204;SDS011;64986;55.672;37.628;2024-02-26T06:59:07;5.55;;;2.72;;
76204;SDS011;64986;55.672;37.628;2024-02-26T07:01:32;4.38;;;2.63;;
76204;SDS011;64986;55.672;37.628;2024-02-26T07:03:58;8.00;;;3.35;;
76204;SDS011;64986;55.672;37.628;2024-02-26T07:06:23;6.90;;;4.07;;
76204;SDS011;64986;55.672;37.628;2024-02-26T07:08:48;7.82;;;3.10;;
76204;SDS011;64986;55.672;37.628;2024-02-26T07:11:14;6.60;;;3.17;;
76204;SDS011;64986;55.672;37.628;2024-02-26T07:13:39;6.75;;;3.45;;
76204;SDS011;64986;55.672;37.628;2024-02-26T07:16:05;10.43;;;3.03;;
76204;SDS011;64986;55.672;37.628;2024-02-26T07:18:30;6.25;;;3.10;;
76204;SDS011;64986;55.672;37.628;2024-02-26T07:20:56;9.50;;;3.55;;
76204;SDS011;64986;55.672;37.628;2024-02-26T07:23:21;7.93;;;3.72;;
76204;SDS011;64986;55.672;37.628;2024-02-26T07:25:46;7.03;;;3.65;;
76204;SDS011;64986;55.672;37.628;2024-02-26T07:28:14;7.40;;;3.63;;
76204;SDS011;64986;55.672;37.628;2024-02-26T07:30:39;4.75;;;2.55;;
76204;SDS011;64986;55.672;37.628;2024-02-26T07:33:05;13.02;;;4.30;;
76204;SDS011;64986;55.672;37.628;2024-02-26T07:35:30;11.13;;;3.50;;
76204;SDS011;64986;55.672;37.628;2024-02-26T07:37:57;6.80;;;3.15;;
76204;SDS011;64986;55.672;37.628;2024-02-26T07:40:23;10.15;;;4.75;;
76204;SDS011;64986;55.672;37.628;2024-02-26T07:42:48;8.07;;;3.83;;
76204;SDS011;64986;55.672;37.628;2024-02-26T07:45:13;7.43;;;3.13;;
76204;SDS011;64986;55.672;37.628;2024-02-26T07:47:40;11.52;;;3.55;;
76204;SDS011;64986;55.672;37.628;2024-02-26T07:50:07;8.07;;;3.25;;
76204;SDS011;64986;55.672;37.628;2024-02-26T07:52:32;8.50;;;3.70;;
76204;SDS011;64986;55.672;37.628;2024-02-26T07:54:58;8.02;;;3.33;;
76204;SDS011;64986;55.672;37.628;2024-02-26T07:57:24;5.63;;;3.17;;
76204;SDS011;64986;55.672;37.628;2024-02-26T07:59:49;9.80;;;3.65;;
76204;SDS011;64986;55.672;37.628;2024-02-26T08:02:15;5.72;;;2.78;;
76204;SDS011;64986;55.672;37.628;2024-02-26T08:04:41;6.18;;;3.80;;
76204;SDS011;64986;55.672;37.628;2024-02-26T08:07:06;5.88;;;3.00;;
76204;SDS011;64986;55.672;37.628;2024-02-26T08:09:31;11.05;;;3.25;;
76204;SDS011;64986;55.672;37.628;2024-02-26T08:11:57;5.40;;;3.35;;
76204;SDS011;64986;55.672;37.628;2024-02-26T08:14:22;6.43;;;2.97;;
76204;SDS011;64986;55.672;37.628;2024-02-26T08:16:47;6.22;;;2.88;;
76204;SDS011;64986;55.672;37.628;2024-02-26T08:19:14;9.20;;;3.58;;
76204;SDS011;64986;55.672;37.628;2024-02-26T08:21:40;6.22;;;3.47;;
76204;SDS011;64986;55.672;37.628;2024-02-26T08:24:05;6.85;;;3.05;;
76204;SDS011;64986;55.672;37.628;2024-02-26T08:26:31;8.80;;;3.22;;
76204;SDS011;64986;55.672;37.628;2024-02-26T08:28:56;6.55;;;2.75;;
76204;SDS011;64986;55.672;37.628;2024-02-26T08:31:23;7.60;;;4.00;;
76204;SDS011;64986;55.672;37.628;2024-02-26T08:33:48;12.13;;;3.75;;
76204;SDS011;64986;55.672;37.628;2024-02-26T08:36:14;6.75;;;3.17;;
76204;SDS011;64986;55.672;37.628;2024-02-26T08:38:39;6.47;;;3.33;;
76204;SDS011;64986;55.672;37.628;2024-02-26T08:41:05;8.00;;;3.80;;
76204;SDS011;64986;55.672;37.628;2024-02-26T08:43:30;7.07;;;3.20;;
76204;SDS011;64986;55.672;37.628;2024-02-26T08:45:56;7.50;;;3.30;;
76204;SDS011;64986;55.672;37.628;2024-02-26T08:48:22;7.55;;;3.78;;
76204;SDS011;64986;55.672;37.628;2024-02-26T08:50:47;9.90;;;3.13;;
76204;SDS011;64986;55.672;37.628;2024-02-26T08:53:12;7.72;;;3.33;;
76204;SDS011;64986;55.672;37.628;2024-02-26T08:55:38;8.20;;;3.35;;
76204;SDS011;64986;55.672;37.628;2024-02-26T08:58:03;7.70;;;4.15;;
76204;SDS011;64986;55.672;37.628;2024-02-26T09:00:28;7.55;;;2.92;;
76204;SDS011;64986;55.672;37.628;2024-02-26T09:02:54;5.85;;;2.78;;
76204;SDS011;64986;55.672;37.628;2024-02-26T09:05:19;5.65;;;2.65;;
76204;SDS011;64986;55.672;37.628;2024-02-26T09:07:45;6.82;;;3.13;;
76204;SDS011;64986;55.672;37.628;2024-02-26T09:10:11;7.55;;;3.33;;
76204;SDS011;64986;55.672;37.628;2024-02-26T09:12:37;11.82;;;3.90;;
76204;SDS011;64986;55.672;37.628;2024-02-26T09:15:03;10.23;;;4.40;;
76204;SDS011;64986;55.672;37.628;2024-02-26T09:17:28;7.43;;;3.47;;
76204;SDS011;64986;55.672;37.628;2024-02-26T09:19:53;6.82;;;3.90;;
76204;SDS011;64986;55.672;37.628;2024-02-26T09:22:19;6.03;;;3.28;;
76204;SDS011;64986;55.672;37.628;2024-02-26T09:24:44;9.48;;;3.25;;
76204;SDS011;64986;55.672;37.628;2024-02-26T09:27:10;7.30;;;3.58;;
76204;SDS011;64986;55.672;37.628;2024-02-26T09:29:35;6.85;;;3.30;;
76204;SDS011;64986;55.672;37.628;2024-02-26T09:32:01;7.18;;;3.20;;
76204;SDS011;64986;55.672;37.628;2024-02-26T09:34:26;9.02;;;3.55;;
76204;SDS011;64986;55.672;37.628;2024-02-26T09:36:51;10.35;;;3.78;;
76204;SDS011;64986;55.672;37.628;2024-02-26T09:39:17;15.40;;;3.70;;
76204;SDS011;64986;55.672;37.628;2024-02-26T09:41:46;13.75;;;3.90;;
76204;SDS011;64986;55.672;37.628;2024-02-26T09:44:12;9.93;;;3.90;;
76204;SDS011;64986;55.672;37.628;2024-02-26T09:46:39;9.68;;;4.00;;
76204;SDS011;64986;55.672;37.628;2024-02-26T09:49:05;7.65;;;3.92;;
76204;SDS011;64986;55.672;37.628;2024-02-26T09:51:31;7.57;;;3.50;;
76204;SDS011;64986;55.672;37.628;2024-02-26T09:53:57;9.90;;;3.50;;
76204;SDS011;64986;55.672;37.628;2024-02-26T09:56:24;9.93;;;4.13;;
76204;SDS011;64986;55.672;37.628;2024-02-26T09:58:50;9.07;;;3.95;;
76204;SDS011;64986;55.672;37.628;2024-02-26T10:01:19;7.95;;;3.85;;
76204;SDS011;64986;55.672;37.628;2024-02-26T10:03:44;9.93;;;4.10;;
76204;SDS011;64986;55.672;37.628;2024-02-26T10:06:12;11.00;;;4.40;;
76204;SDS011;64986;55.672;37.628;2024-02-26T10:08:37;7.40;;;3.67;;
76204;SDS011;64986;55.672;37.628;2024-02-26T10:11:09;8.05;;;3.97;;
76204;SDS011;64986;55.672;37.628;2024-02-26T10:13:35;8.40;;;4.03;;
76204;SDS011;64986;55.672;37.628;2024-02-26T10:16:01;12.02;;;4.22;;
76204;SDS011;64986;55.672;37.628;2024-02-26T10:18:44;7.93;;;2.88;;
76204;SDS011;64986;55.672;37.628;2024-02-26T10:21:10;6.38;;;3.65;;
76204;SDS011;64986;55.672;37.628;2024-02-26T10:23:35;6.57;;;3.45;;
76204;SDS011;64986;55.672;37.628;2024-02-26T10:26:01;8.40;;;4.20;;
76204;SDS011;64986;55.672;37.628;2024-02-26T10:28:26;11.43;;;3.70;;
76204;SDS011;64986;55.672;37.628;2024-02-26T10:30:54;8.02;;;3.67;;
76204;SDS011;64986;55.672;37.628;2024-02-26T10:33:20;11.23;;;4.28;;
76204;SDS011;64986;55.672;37.628;2024-02-26T10:35:46;11.40;;;4.10;;
76204;SDS011;64986;55.672;37.628;2024-02-26T10:38:12;7.63;;;3.75;;
76204;SDS011;64986;55.672;37.628;2024-02-26T10:40:38;7.43;;;3.72;;
76204;SDS011;64986;55.672;37.628;2024-02-26T10:43:03;6.65;;;3.35;;
76204;SDS011;64986;55.672;37.628;2024-02-26T10:45:29;9.10;;;3.88;;
76204;SDS011;64986;55.672;37.628;2024-02-26T10:47:55;6.65;;;4.10;;
76204;SDS011;64986;55.672;37.628;2024-02-26T10:50:20;9.50;;;4.15;;
76204;SDS011;64986;55.672;37.628;2024-02-26T10:52:46;12.32;;;3.88;;
76204;SDS011;64986;55.672;37.628;2024-02-26T10:55:20;10.77;;;3.80;;
76204;SDS011;64986;55.672;37.628;2024-02-26T10:57:47;7.47;;;3.72;;
76204;SDS011;64986;55.672;37.628;2024-02-26T11:00:16;11.68;;;4.65;;
76204;SDS011;64986;55.672;37.628;2024-02-26T11:02:41;9.70;;;4.43;;
76204;SDS011;64986;55.672;37.628;2024-02-26T11:05:10;12.88;;;4.50;;
76204;SDS011;64986;55.672;37.628;2024-02-26T11:07:37;9.43;;;4.93;;
76204;SDS011;64986;55.672;37.628;2024-02-26T11:10:03;13.25;;;4.53;;
76204;SDS011;64986;55.672;37.628;2024-02-26T11:12:33;12.77;;;5.10;;
76204;SDS011;64986;55.672;37.628;2024-02-26T11:15:03;9.77;;;3.58;;
76204;SDS011;64986;55.672;37.628;2024-02-26T11:17:29;8.93;;;4.78;;
76204;SDS011;64986;55.672;37.628;2024-02-26T11:19:56;13.40;;;5.63;;
76204;SDS011;64986;55.672;37.628;2024-02-26T11:22:26;7.25;;;4.28;;
76204;SDS011;64986;55.672;37.628;2024-02-26T11:24:52;13.63;;;4.63;;
76204;SDS011;64986;55.672;37.628;2024-02-26T11:27:29;7.40;;;4.00;;
76204;SDS011;64986;55.672;37.628;2024-02-26T11:29:58;9.38;;;5.03;;
76204;SDS011;64986;55.672;37.628;2024-02-26T11:32:26;13.38;;;4.10;;
76204;SDS011;64986;55.672;37.628;2024-02-26T11:34:55;9.98;;;4.15;;
76204;SDS011;64986;55.672;37.628;2024-02-26T11:37:21;10.23;;;4.45;;
76204;SDS011;64986;55.672;37.628;2024-02-26T11:39:48;9.93;;;4.13;;
76204;SDS011;64986;55.672;37.628;2024-02-26T11:42:16;12.13;;;5.30;;
76204;SDS011;64986;55.672;37.628;2024-02-26T11:44:42;13.23;;;5.30;;
76204;SDS011;64986;55.672;37.628;2024-02-26T11:49:37;11.07;;;4.10;;
76204;SDS011;64986;55.672;37.628;2024-02-26T11:52:05;9.80;;;4.35;;
76204;SDS011;64986;55.672;37.628;2024-02-26T11:54:39;8.82;;;3.88;;
76204;SDS011;64986;55.672;37.628;2024-02-26T11:59:56;6.15;;;3.50;;
76204;SDS011;64986;55.672;37.628;2024-02-26T12:07:45;8.75;;;5.05;;
76204;SDS011;64986;55.672;37.628;2024-02-26T12:15:54;15.55;;;5.10;;
76204;SDS011;64986;55.672;37.628;2024-02-26T12:18:19;13.02;;;4.25;;
76204;SDS011;64986;55.672;37.628;2024-02-26T12:20:45;6.90;;;4.43;;
76204;SDS011;64986;55.672;37.628;2024-02-26T12:23:15;8.45;;;3.83;;
76204;SDS011;64986;55.672;37.628;2024-02-26T12:25:44;12.02;;;4.22;;
76204;SDS011;64986;55.672;37.628;2024-02-26T12:28:13;9.60;;;4.15;;
76204;SDS011;64986;55.672;37.628;2024-02-26T12:30:39;10.80;;;4.25;;
76204;SDS011;64986;55.672;37.628;2024-02-26T12:33:04;7.85;;;3.72;;
76204;SDS011;64986;55.672;37.628;2024-02-26T12:35:29;11.27;;;4.15;;
76204;SDS011;64986;55.672;37.628;2024-02-26T12:37:57;8.00;;;3.85;;
76204;SDS011;64986;55.672;37.628;2024-02-26T12:40:23;13.50;;;4.53;;
76204;SDS011;64986;55.672;37.628;2024-02-26T12:42:48;8.57;;;4.30;;
76204;SDS011;64986;55.672;37.628;2024-02-26T12:45:14;9.88;;;4.20;;
76204;SDS011;64986;55.672;37.628;2024-02-26T12:47:44;6.72;;;4.05;;
76204;SDS011;64986;55.672;37.628;2024-02-26T12:50:16;6.18;;;3.60;;
76204;SDS011;64986;55.672;37.628;2024-02-26T12:52:46;11.77;;;4.10;;
76204;SDS011;64986;55.672;37.628;2024-02-26T12:55:15;11.90;;;4.68;;
76204;SDS011;64986;55.672;37.628;2024-02-26T12:57:41;8.48;;;3.47;;
76204;SDS011;64986;55.672;37.628;2024-02-26T13:00:08;6.13;;;3.58;;
76204;SDS011;64986;55.672;37.628;2024-02-26T13:02:35;8.63;;;3.97;;
76204;SDS011;64986;55.672;37.628;2024-02-26T13:05:01;13.10;;;3.83;;
76204;SDS011;64986;55.672;37.628;2024-02-26T13:07:27;8.82;;;3.60;;
76204;SDS011;64986;55.672;37.628;2024-02-26T13:09:52;10.52;;;3.60;;
76204;SDS011;64986;55.672;37.628;2024-02-26T13:12:18;6.10;;;3.00;;
76204;SDS011;64986;55.672;37.628;2024-02-26T13:14:44;7.85;;;2.88;;
76204;SDS011;64986;55.672;37.628;2024-02-26T13:17:09;6.93;;;3.45;;
76204;SDS011;64986;55.672;37.628;2024-02-26T13:19:35;6.88;;;3.22;;
76204;SDS011;64986;55.672;37.628;2024-02-26T13:22:03;9.82;;;3.70;;
76204;SDS011;64986;55.672;37.628;2024-02-26T13:24:29;7.97;;;3.10;;
76204;SDS011;64986;55.672;37.628;2024-02-26T13:26:56;6.78;;;3.08;;
76204;SDS011;64986;55.672;37.628;2024-02-26T13:29:21;6.25;;;2.35;;
76204;SDS011;64986;55.672;37.628;2024-02-26T13:31:46;6.47;;;3.30;;
76204;SDS011;64986;55.672;37.628;2024-02-26T13:34:33;3.83;;;2.78;;
76204;SDS011;64986;55.672;37.628;2024-02-26T13:36:59;6.70;;;2.80;;
76204;SDS011;64986;55.672;37.628;2024-02-26T13:39:25;5.20;;;2.28;;
76204;SDS011;64986;55.672;37.628;2024-02-26T13:41:51;7.10;;;3.78;;
76204;SDS011;64986;55.672;37.628;2024-02-26T13:44:17;8.60;;;2.90;;
76204;SDS011;64986;55.672;37.628;2024-02-26T13:46:42;5.43;;;2.65;;
76204;SDS011;64986;55.672;37.628;2024-02-26T13:49:08;6.15;;;3.03;;
76204;SDS011;64986;55.672;37.628;2024-02-26T13:51:34;5.28;;;2.58;;
76204;SDS011;64986;55.672;37.628;2024-02-26T13:54:00;6.32;;;2.30;;
76204;SDS011;64986;55.672;37.628;2024-02-26T13:56:26;5.38;;;2.55;;
76204;SDS011;64986;55.672;37.628;2024-02-26T13:58:51;8.32;;;2.97;;
76204;SDS011;64986;55.672;37.628;2024-02-26T14:01:16;4.75;;;2.40;;
76204;SDS011;64986;55.672;37.628;2024-02-26T14:03:42;9.50;;;3.85;;
76204;SDS011;64986;55.672;37.628;2024-02-26T14:06:07;9.00;;;3.22;;
76204;SDS011;64986;55.672;37.628;2024-02-26T14:08:32;12.15;;;2.85;;
76204;SDS011;64986;55.672;37.628;2024-02-26T14:10:58;9.98;;;3.30;;
76204;SDS011;64986;55.672;37.628;2024-02-26T14:13:25;6.97;;;3.28;;
76204;SDS011;64986;55.672;37.628;2024-02-26T14:15:50;6.70;;;3.40;;
76204;SDS011;64986;55.672;37.628;2024-02-26T14:18:15;5.60;;;2.85;;
76204;SDS011;64986;55.672;37.628;2024-02-26T14:20:41;6.13;;;3.88;;
76204;SDS011;64986;55.672;37.628;2024-02-26T14:23:06;11.90;;;5.00;;
76204;SDS011;64986;55.672;37.628;2024-02-26T14:25:32;9.57;;;3.70;;
76204;SDS011;64986;55.672;37.628;2024-02-26T14:27:57;6.45;;;3.78;;
76204;SDS011;64986;55.672;37.628;2024-02-26T14:30:24;8.93;;;4.38;;
76204;SDS011;64986;55.672;37.628;2024-02-26T14:32:50;11.93;;;4.32;;
76204;SDS011;64986;55.672;37.628;2024-02-26T14:35:15;6.05;;;3.33;;
76204;SDS011;64986;55.672;37.628;2024-02-26T14:37:59;10.57;;;4.65;;
76204;SDS011;64986;55.672;37.628;2024-02-26T14:40:26;7.18;;;4.05;;
76204;SDS011;64986;55.672;37.628;2024-02-26T14:42:52;7.03;;;3.65;;